sensor_id;sensor_type;location;lat;lon;timestamp;pressure;altitude;pressure_sealevel;temperature
20289;BMP180;10303;51.960;8.372;2022-09-28T00:01:19;98436.00;;;12.50
20289;BMP180;10303;51.960;8.372;2022-09-28T00:03:50;98416.00;;;12.50
20289;BMP180;10303;51.960;8.372;2022-09-28T00:06:20;98428.00;;;12.50
20289;BMP180;10303;51.960;8.372;2022-09-28T00:08:47;98414.00;;;12.50
20289;BMP180;10303;51.960;8.372;2022-09-28T00:11:16;98425.00;;;12.50
20289;BMP180;10303;51.960;8.372;2022-09-28T00:13:49;98405.00;;;12.50
20289;BMP180;10303;51.960;8.372;2022-09-28T00:17:14;98417.00;;;12.50
20289;BMP180;10303;51.960;8.372;2022-09-28T00:19:55;98404.00;;;12.40
20289;BMP180;10303;51.960;8.372;2022-09-28T00:22:22;98408.00;;;12.40
20289;BMP180;10303;51.960;8.372;2022-09-28T00:24:48;98405.00;;;12.40
20289;BMP180;10303;51.960;8.372;2022-09-28T00:27:14;98399.00;;;12.40
20289;BMP180;10303;51.960;8.372;2022-09-28T00:29:42;98383.00;;;12.40
20289;BMP180;10303;51.960;8.372;2022-09-28T00:32:12;98383.00;;;12.40
20289;BMP180;10303;51.960;8.372;2022-09-28T00:34:42;98400.00;;;12.30
20289;BMP180;10303;51.960;8.372;2022-09-28T00:37:12;98391.00;;;12.40
20289;BMP180;10303;51.960;8.372;2022-09-28T00:39:42;98369.00;;;12.40
20289;BMP180;10303;51.960;8.372;2022-09-28T00:42:24;98363.00;;;12.40
20289;BMP180;10303;51.960;8.372;2022-09-28T00:44:58;98387.00;;;12.40
20289;BMP180;10303;51.960;8.372;2022-09-28T00:47:42;98376.00;;;12.40
20289;BMP180;10303;51.960;8.372;2022-09-28T00:53:31;98372.00;;;12.40
20289;BMP180;10303;51.960;8.372;2022-09-28T00:55:44;98369.00;;;12.40
20289;BMP180;10303;51.960;8.372;2022-09-28T00:58:33;98371.00;;;12.30
20289;BMP180;10303;51.960;8.372;2022-09-28T01:01:02;98372.00;;;12.40
20289;BMP180;10303;51.960;8.372;2022-09-28T01:03:34;98367.00;;;12.50
20289;BMP180;10303;51.960;8.372;2022-09-28T01:06:27;98358.00;;;12.40
20289;BMP180;10303;51.960;8.372;2022-09-28T01:09:07;98347.00;;;12.40
20289;BMP180;10303;51.960;8.372;2022-09-28T01:11:37;98354.00;;;12.40
20289;BMP180;10303;51.960;8.372;2022-09-28T01:14:11;98337.00;;;12.40
20289;BMP180;10303;51.960;8.372;2022-09-28T01:17:16;98340.00;;;12.40
20289;BMP180;10303;51.960;8.372;2022-09-28T01:23:47;98352.00;;;12.20
20289;BMP180;10303;51.960;8.372;2022-09-28T01:34:59;98352.00;;;12.20
20289;BMP180;10303;51.960;8.372;2022-09-28T01:37:51;98353.00;;;12.20
20289;BMP180;10303;51.960;8.372;2022-09-28T01:40:24;98350.00;;;12.20
20289;BMP180;10303;51.960;8.372;2022-09-28T01:43:05;98350.00;;;12.10
20289;BMP180;10303;51.960;8.372;2022-09-28T01:45:48;98361.00;;;12.20
20289;BMP180;10303;51.960;8.372;2022-09-28T01:48:28;98341.00;;;12.20
20289;BMP180;10303;51.960;8.372;2022-09-28T01:51:02;98341.00;;;12.20
20289;BMP180;10303;51.960;8.372;2022-09-28T01:53:41;98332.00;;;12.10
20289;BMP180;10303;51.960;8.372;2022-09-28T01:56:38;98352.00;;;12.10
20289;BMP180;10303;51.960;8.372;2022-09-28T01:59:17;98355.00;;;12.10
20289;BMP180;10303;51.960;8.372;2022-09-28T02:05:10;98349.00;;;12.10
20289;BMP180;10303;51.960;8.372;2022-09-28T02:07:47;98334.00;;;12.10
20289;BMP180;10303;51.960;8.372;2022-09-28T02:10:37;98346.00;;;12.10
20289;BMP180;10303;51.960;8.372;2022-09-28T02:16:22;98341.00;;;12.10
20289;BMP180;10303;51.960;8.372;2022-09-28T02:18:51;98331.00;;;12.10
20289;BMP180;10303;51.960;8.372;2022-09-28T02:21:30;98336.00;;;12.10
20289;BMP180;10303;51.960;8.372;2022-09-28T02:24:05;98328.00;;;12.10
20289;BMP180;10303;51.960;8.372;2022-09-28T02:26:39;98336.00;;;12.10
20289;BMP180;10303;51.960;8.372;2022-09-28T02:29:07;98325.00;;;12.10
20289;BMP180;10303;51.960;8.372;2022-09-28T02:31:34;98324.00;;;12.10
20289;BMP180;10303;51.960;8.372;2022-09-28T02:34:00;98335.00;;;12.10
20289;BMP180;10303;51.960;8.372;2022-09-28T02:36:28;98338.00;;;12.10
20289;BMP180;10303;51.960;8.372;2022-09-28T02:38:56;98329.00;;;12.10
20289;BMP180;10303;51.960;8.372;2022-09-28T02:47:32;98350.00;;;12.10
20289;BMP180;10303;51.960;8.372;2022-09-28T02:53:30;98354.00;;;12.10
20289;BMP180;10303;51.960;8.372;2022-09-28T02:59:15;98351.00;;;12.00
20289;BMP180;10303;51.960;8.372;2022-09-28T03:08:12;98343.00;;;12.00
20289;BMP180;10303;51.960;8.372;2022-09-28T03:13:28;98335.00;;;12.00
20289;BMP180;10303;51.960;8.372;2022-09-28T03:16:18;98338.00;;;12.00
20289;BMP180;10303;51.960;8.372;2022-09-28T03:18:47;98354.00;;;12.00
20289;BMP180;10303;51.960;8.372;2022-09-28T03:21:15;98348.00;;;12.00
20289;BMP180;10303;51.960;8.372;2022-09-28T03:23:42;98351.00;;;12.00
20289;BMP180;10303;51.960;8.372;2022-09-28T03:26:12;98363.00;;;12.00
20289;BMP180;10303;51.960;8.372;2022-09-28T03:28:40;98347.00;;;11.90
20289;BMP180;10303;51.960;8.372;2022-09-28T03:31:12;98358.00;;;11.90
20289;BMP180;10303;51.960;8.372;2022-09-28T03:33:40;98343.00;;;11.90
20289;BMP180;10303;51.960;8.372;2022-09-28T03:36:08;98347.00;;;11.90
20289;BMP180;10303;51.960;8.372;2022-09-28T03:38:37;98338.00;;;11.80
20289;BMP180;10303;51.960;8.372;2022-09-28T03:41:04;98335.00;;;11.80
20289;BMP180;10303;51.960;8.372;2022-09-28T03:43:34;98329.00;;;11.80
20289;BMP180;10303;51.960;8.372;2022-09-28T03:46:02;98330.00;;;11.80
20289;BMP180;10303;51.960;8.372;2022-09-28T03:48:34;98347.00;;;11.70
20289;BMP180;10303;51.960;8.372;2022-09-28T03:51:05;98335.00;;;11.70
20289;BMP180;10303;51.960;8.372;2022-09-28T03:53:34;98334.00;;;11.70
20289;BMP180;10303;51.960;8.372;2022-09-28T03:56:13;98348.00;;;11.70
20289;BMP180;10303;51.960;8.372;2022-09-28T03:58:41;98348.00;;;11.70
20289;BMP180;10303;51.960;8.372;2022-09-28T04:01:12;98337.00;;;11.70
20289;BMP180;10303;51.960;8.372;2022-09-28T04:03:39;98344.00;;;11.70
20289;BMP180;10303;51.960;8.372;2022-09-28T04:06:05;98346.00;;;11.60
20289;BMP180;10303;51.960;8.372;2022-09-28T04:08:32;98330.00;;;11.60
20289;BMP180;10303;51.960;8.372;2022-09-28T04:10:59;98348.00;;;11.60
20289;BMP180;10303;51.960;8.372;2022-09-28T04:13:28;98350.00;;;11.60
20289;BMP180;10303;51.960;8.372;2022-09-28T04:15:56;98343.00;;;11.60
20289;BMP180;10303;51.960;8.372;2022-09-28T04:18:25;98334.00;;;11.60
20289;BMP180;10303;51.960;8.372;2022-09-28T04:21:07;98341.00;;;11.60
20289;BMP180;10303;51.960;8.372;2022-09-28T04:23:40;98332.00;;;11.60
20289;BMP180;10303;51.960;8.372;2022-09-28T04:26:13;98344.00;;;11.60
20289;BMP180;10303;51.960;8.372;2022-09-28T04:28:44;98330.00;;;11.70
20289;BMP180;10303;51.960;8.372;2022-09-28T04:31:30;98350.00;;;11.60
20289;BMP180;10303;51.960;8.372;2022-09-28T04:34:01;98341.00;;;11.70
20289;BMP180;10303;51.960;8.372;2022-09-28T04:36:30;98354.00;;;11.60
20289;BMP180;10303;51.960;8.372;2022-09-28T04:39:16;98356.00;;;11.60
20289;BMP180;10303;51.960;8.372;2022-09-28T04:41:48;98345.00;;;11.60
20289;BMP180;10303;51.960;8.372;2022-09-28T04:44:15;98350.00;;;11.60
20289;BMP180;10303;51.960;8.372;2022-09-28T04:46:44;98337.00;;;11.70
20289;BMP180;10303;51.960;8.372;2022-09-28T04:49:39;98335.00;;;11.70
20289;BMP180;10303;51.960;8.372;2022-09-28T04:52:08;98342.00;;;11.60
20289;BMP180;10303;51.960;8.372;2022-09-28T04:54:37;98352.00;;;11.60
20289;BMP180;10303;51.960;8.372;2022-09-28T04:57:05;98341.00;;;11.70
20289;BMP180;10303;51.960;8.372;2022-09-28T04:59:31;98337.00;;;11.70
20289;BMP180;10303;51.960;8.372;2022-09-28T05:01:59;98340.00;;;11.70
20289;BMP180;10303;51.960;8.372;2022-09-28T05:04:48;98334.00;;;11.70
20289;BMP180;10303;51.960;8.372;2022-09-28T05:07:34;98361.00;;;11.70
20289;BMP180;10303;51.960;8.372;2022-09-28T05:10:03;98323.00;;;11.80
20289;BMP180;10303;51.960;8.372;2022-09-28T05:12:32;98342.00;;;11.80
20289;BMP180;10303;51.960;8.372;2022-09-28T05:15:01;98346.00;;;11.80
20289;BMP180;10303;51.960;8.372;2022-09-28T08:07:56;98467.00;;;12.40
20289;BMP180;10303;51.960;8.372;2022-09-28T10:50:24;98580.00;;;14.20
20289;BMP180;10303;51.960;8.372;2022-09-28T11:00:42;98582.00;;;14.20
20289;BMP180;10303;51.960;8.372;2022-09-28T11:03:30;98567.00;;;14.20
20289;BMP180;10303;51.960;8.372;2022-09-28T11:06:09;98582.00;;;14.20
20289;BMP180;10303;51.960;8.372;2022-09-28T11:08:42;98580.00;;;14.30
20289;BMP180;10303;51.960;8.372;2022-09-28T11:11:41;98593.00;;;14.30
20289;BMP180;10303;51.960;8.372;2022-09-28T11:52:17;98603.00;;;14.60
20289;BMP180;10303;51.960;8.372;2022-09-28T12:25:04;98602.00;;;15.20
20289;BMP180;10303;51.960;8.372;2022-09-28T15:26:24;98656.00;;;16.40
20289;BMP180;10303;51.960;8.372;2022-09-28T15:29:21;98656.00;;;16.50
20289;BMP180;10303;51.960;8.372;2022-09-28T15:32:25;98655.00;;;16.50
20289;BMP180;10303;51.960;8.372;2022-09-28T15:35:33;98654.00;;;16.50
20289;BMP180;10303;51.960;8.372;2022-09-28T16:01:30;98683.00;;;16.60
20289;BMP180;10303;51.960;8.372;2022-09-28T16:04:59;98670.00;;;16.50
20289;BMP180;10303;51.960;8.372;2022-09-28T16:08:03;98687.00;;;16.50
20289;BMP180;10303;51.960;8.372;2022-09-28T16:10:32;98681.00;;;16.50
20289;BMP180;10303;51.960;8.372;2022-09-28T16:13:25;98684.00;;;16.40
20289;BMP180;10303;51.960;8.372;2022-09-28T16:15:58;98690.00;;;16.40
20289;BMP180;10303;51.960;8.372;2022-09-28T16:18:30;98685.00;;;16.30
20289;BMP180;10303;51.960;8.372;2022-09-28T16:21:41;98690.00;;;16.30
20289;BMP180;10303;51.960;8.372;2022-09-28T16:24:37;98695.00;;;16.20
20289;BMP180;10303;51.960;8.372;2022-09-28T16:27:41;98694.00;;;16.10
20289;BMP180;10303;51.960;8.372;2022-09-28T16:32:58;98690.00;;;16.10
20289;BMP180;10303;51.960;8.372;2022-09-28T16:36:00;98678.00;;;16.00
20289;BMP180;10303;51.960;8.372;2022-09-28T16:38:30;98702.00;;;15.90
20289;BMP180;10303;51.960;8.372;2022-09-28T16:40:59;98702.00;;;15.90
20289;BMP180;10303;51.960;8.372;2022-09-28T16:43:36;98685.00;;;15.80
20289;BMP180;10303;51.960;8.372;2022-09-28T16:46:15;98708.00;;;15.70
20289;BMP180;10303;51.960;8.372;2022-09-28T16:48:55;98697.00;;;15.60
20289;BMP180;10303;51.960;8.372;2022-09-28T16:51:53;98717.00;;;15.50
20289;BMP180;10303;51.960;8.372;2022-09-28T16:54:35;98704.00;;;15.40
20289;BMP180;10303;51.960;8.372;2022-09-28T16:57:29;98705.00;;;15.40
20289;BMP180;10303;51.960;8.372;2022-09-28T17:00:02;98709.00;;;15.30
20289;BMP180;10303;51.960;8.372;2022-09-28T17:02:33;98713.00;;;15.20
20289;BMP180;10303;51.960;8.372;2022-09-28T17:05:03;98718.00;;;15.20
20289;BMP180;10303;51.960;8.372;2022-09-28T17:07:33;98722.00;;;15.10
20289;BMP180;10303;51.960;8.372;2022-09-28T17:11:13;98724.00;;;14.90
20289;BMP180;10303;51.960;8.372;2022-09-28T17:14:12;98717.00;;;14.80
20289;BMP180;10303;51.960;8.372;2022-09-28T17:17:05;98723.00;;;14.80
20289;BMP180;10303;51.960;8.372;2022-09-28T17:19:39;98718.00;;;14.70
20289;BMP180;10303;51.960;8.372;2022-09-28T17:22:10;98725.00;;;14.60
20289;BMP180;10303;51.960;8.372;2022-09-28T17:24:36;98710.00;;;14.50
20289;BMP180;10303;51.960;8.372;2022-09-28T17:27:03;98730.00;;;14.50
20289;BMP180;10303;51.960;8.372;2022-09-28T17:29:33;98728.00;;;14.40
20289;BMP180;10303;51.960;8.372;2022-09-28T17:31:59;98735.00;;;14.30
20289;BMP180;10303;51.960;8.372;2022-09-28T17:34:25;98743.00;;;14.30
20289;BMP180;10303;51.960;8.372;2022-09-28T17:36:51;98742.00;;;14.20
20289;BMP180;10303;51.960;8.372;2022-09-28T17:39:17;98739.00;;;14.10
20289;BMP180;10303;51.960;8.372;2022-09-28T17:41:45;98739.00;;;14.10
20289;BMP180;10303;51.960;8.372;2022-09-28T17:44:12;98731.00;;;14.00
20289;BMP180;10303;51.960;8.372;2022-09-28T17:46:44;98731.00;;;13.90
20289;BMP180;10303;51.960;8.372;2022-09-28T17:49:14;98745.00;;;13.90
20289;BMP180;10303;51.960;8.372;2022-09-28T17:51:40;98753.00;;;13.80
20289;BMP180;10303;51.960;8.372;2022-09-28T17:54:07;98761.00;;;13.70
20289;BMP180;10303;51.960;8.372;2022-09-28T17:56:35;98762.00;;;13.70
20289;BMP180;10303;51.960;8.372;2022-09-28T17:59:04;98744.00;;;13.60
20289;BMP180;10303;51.960;8.372;2022-09-28T18:01:33;98751.00;;;13.60
20289;BMP180;10303;51.960;8.372;2022-09-28T18:04:02;98766.00;;;13.50
20289;BMP180;10303;51.960;8.372;2022-09-28T18:06:29;98761.00;;;13.40
20289;BMP180;10303;51.960;8.372;2022-09-28T18:08:56;98750.00;;;13.40
20289;BMP180;10303;51.960;8.372;2022-09-28T18:11:42;98752.00;;;13.30
20289;BMP180;10303;51.960;8.372;2022-09-28T18:14:32;98762.00;;;13.30
20289;BMP180;10303;51.960;8.372;2022-09-28T18:17:07;98764.00;;;13.30
20289;BMP180;10303;51.960;8.372;2022-09-28T18:20:09;98764.00;;;13.20
20289;BMP180;10303;51.960;8.372;2022-09-28T18:22:39;98777.00;;;13.20
20289;BMP180;10303;51.960;8.372;2022-09-28T18:25:06;98761.00;;;13.20
20289;BMP180;10303;51.960;8.372;2022-09-28T18:27:32;98763.00;;;13.10
20289;BMP180;10303;51.960;8.372;2022-09-28T18:30:00;98773.00;;;13.10
20289;BMP180;10303;51.960;8.372;2022-09-28T18:32:28;98764.00;;;13.10
20289;BMP180;10303;51.960;8.372;2022-09-28T18:34:54;98775.00;;;13.10
20289;BMP180;10303;51.960;8.372;2022-09-28T18:37:20;98779.00;;;13.00
20289;BMP180;10303;51.960;8.372;2022-09-28T18:39:47;98784.00;;;13.00
20289;BMP180;10303;51.960;8.372;2022-09-28T18:42:16;98784.00;;;13.00
20289;BMP180;10303;51.960;8.372;2022-09-28T18:44:44;98779.00;;;12.90
20289;BMP180;10303;51.960;8.372;2022-09-28T18:47:11;98773.00;;;12.90
20289;BMP180;10303;51.960;8.372;2022-09-28T18:49:41;98774.00;;;12.90
20289;BMP180;10303;51.960;8.372;2022-09-28T18:52:07;98786.00;;;12.90
20289;BMP180;10303;51.960;8.372;2022-09-28T18:54:33;98779.00;;;12.90
20289;BMP180;10303;51.960;8.372;2022-09-28T18:56:59;98786.00;;;12.90
20289;BMP180;10303;51.960;8.372;2022-09-28T18:59:25;98773.00;;;12.80
20289;BMP180;10303;51.960;8.372;2022-09-28T19:01:52;98787.00;;;12.80
20289;BMP180;10303;51.960;8.372;2022-09-28T19:04:18;98799.00;;;12.80
20289;BMP180;10303;51.960;8.372;2022-09-28T19:06:47;98787.00;;;12.80
20289;BMP180;10303;51.960;8.372;2022-09-28T19:09:19;98783.00;;;12.80
20289;BMP180;10303;51.960;8.372;2022-09-28T19:11:47;98787.00;;;12.80
20289;BMP180;10303;51.960;8.372;2022-09-28T19:14:15;98796.00;;;12.70
20289;BMP180;10303;51.960;8.372;2022-09-28T19:16:43;98797.00;;;12.70
20289;BMP180;10303;51.960;8.372;2022-09-28T19:19:14;98796.00;;;12.70
20289;BMP180;10303;51.960;8.372;2022-09-28T19:21:43;98787.00;;;12.70
20289;BMP180;10303;51.960;8.372;2022-09-28T19:24:17;98788.00;;;12.70
20289;BMP180;10303;51.960;8.372;2022-09-28T19:26:44;98796.00;;;12.70
20289;BMP180;10303;51.960;8.372;2022-09-28T19:29:13;98795.00;;;12.70
20289;BMP180;10303;51.960;8.372;2022-09-28T19:31:41;98799.00;;;12.60
20289;BMP180;10303;51.960;8.372;2022-09-28T19:34:11;98784.00;;;12.60
20289;BMP180;10303;51.960;8.372;2022-09-28T19:36:38;98775.00;;;12.60
20289;BMP180;10303;51.960;8.372;2022-09-28T19:39:13;98783.00;;;12.60
20289;BMP180;10303;51.960;8.372;2022-09-28T19:41:43;98784.00;;;12.50
20289;BMP180;10303;51.960;8.372;2022-09-28T19:44:19;98799.00;;;12.50
20289;BMP180;10303;51.960;8.372;2022-09-28T19:47:07;98802.00;;;12.40
20289;BMP180;10303;51.960;8.372;2022-09-28T19:49:38;98805.00;;;12.40
20289;BMP180;10303;51.960;8.372;2022-09-28T19:52:15;98810.00;;;12.40
20289;BMP180;10303;51.960;8.372;2022-09-28T19:54:47;98800.00;;;12.40
20289;BMP180;10303;51.960;8.372;2022-09-28T19:57:19;98800.00;;;12.30
20289;BMP180;10303;51.960;8.372;2022-09-28T19:59:46;98811.00;;;12.30
20289;BMP180;10303;51.960;8.372;2022-09-28T20:02:13;98818.00;;;12.30
20289;BMP180;10303;51.960;8.372;2022-09-28T20:04:40;98816.00;;;12.30
20289;BMP180;10303;51.960;8.372;2022-09-28T20:07:06;98833.00;;;12.20
20289;BMP180;10303;51.960;8.372;2022-09-28T20:09:33;98829.00;;;12.20
20289;BMP180;10303;51.960;8.372;2022-09-28T20:11:59;98826.00;;;12.20
20289;BMP180;10303;51.960;8.372;2022-09-28T20:14:25;98831.00;;;12.10
20289;BMP180;10303;51.960;8.372;2022-09-28T20:16:51;98814.00;;;12.10
20289;BMP180;10303;51.960;8.372;2022-09-28T20:19:17;98829.00;;;12.10
20289;BMP180;10303;51.960;8.372;2022-09-28T20:21:47;98836.00;;;12.10
20289;BMP180;10303;51.960;8.372;2022-09-28T20:24:13;98820.00;;;12.10
20289;BMP180;10303;51.960;8.372;2022-09-28T20:26:43;98824.00;;;12.10
20289;BMP180;10303;51.960;8.372;2022-09-28T20:29:09;98827.00;;;12.10
20289;BMP180;10303;51.960;8.372;2022-09-28T20:31:36;98826.00;;;12.10
20289;BMP180;10303;51.960;8.372;2022-09-28T20:34:04;98841.00;;;12.00
20289;BMP180;10303;51.960;8.372;2022-09-28T20:36:30;98827.00;;;12.00
20289;BMP180;10303;51.960;8.372;2022-09-28T20:38:58;98815.00;;;12.00
20289;BMP180;10303;51.960;8.372;2022-09-28T20:41:30;98827.00;;;12.00
20289;BMP180;10303;51.960;8.372;2022-09-28T20:44:04;98833.00;;;12.00
20289;BMP180;10303;51.960;8.372;2022-09-28T20:46:30;98839.00;;;11.90
20289;BMP180;10303;51.960;8.372;2022-09-28T20:48:56;98835.00;;;11.90
20289;BMP180;10303;51.960;8.372;2022-09-28T20:51:24;98826.00;;;11.90
20289;BMP180;10303;51.960;8.372;2022-09-28T20:53:54;98837.00;;;11.90
20289;BMP180;10303;51.960;8.372;2022-09-28T20:56:30;98826.00;;;11.80
20289;BMP180;10303;51.960;8.372;2022-09-28T20:58:59;98830.00;;;11.90
20289;BMP180;10303;51.960;8.372;2022-09-28T21:01:27;98833.00;;;11.80
20289;BMP180;10303;51.960;8.372;2022-09-28T21:04:01;98835.00;;;11.80
20289;BMP180;10303;51.960;8.372;2022-09-28T21:06:30;98838.00;;;11.80
20289;BMP180;10303;51.960;8.372;2022-09-28T21:08:57;98828.00;;;11.80
20289;BMP180;10303;51.960;8.372;2022-09-28T21:11:27;98846.00;;;11.80
20289;BMP180;10303;51.960;8.372;2022-09-28T21:13:57;98836.00;;;11.70
20289;BMP180;10303;51.960;8.372;2022-09-28T21:16:28;98844.00;;;11.70
20289;BMP180;10303;51.960;8.372;2022-09-28T21:18:57;98839.00;;;11.70
20289;BMP180;10303;51.960;8.372;2022-09-28T21:21:25;98833.00;;;11.70
20289;BMP180;10303;51.960;8.372;2022-09-28T21:23:57;98846.00;;;11.60
20289;BMP180;10303;51.960;8.372;2022-09-28T21:26:26;98844.00;;;11.60
20289;BMP180;10303;51.960;8.372;2022-09-28T21:28:58;98849.00;;;11.60
20289;BMP180;10303;51.960;8.372;2022-09-28T21:31:30;98855.00;;;11.50
20289;BMP180;10303;51.960;8.372;2022-09-28T21:33:58;98850.00;;;11.50
20289;BMP180;10303;51.960;8.372;2022-09-28T21:36:25;98851.00;;;11.50
20289;BMP180;10303;51.960;8.372;2022-09-28T21:38:51;98851.00;;;11.50
20289;BMP180;10303;51.960;8.372;2022-09-28T21:41:21;98857.00;;;11.40
20289;BMP180;10303;51.960;8.372;2022-09-28T21:43:47;98855.00;;;11.40
20289;BMP180;10303;51.960;8.372;2022-09-28T21:46:14;98863.00;;;11.40
20289;BMP180;10303;51.960;8.372;2022-09-28T21:48:40;98867.00;;;11.40
20289;BMP180;10303;51.960;8.372;2022-09-28T21:51:12;98866.00;;;11.30
20289;BMP180;10303;51.960;8.372;2022-09-28T21:53:41;98867.00;;;11.30
20289;BMP180;10303;51.960;8.372;2022-09-28T21:56:11;98871.00;;;11.30
20289;BMP180;10303;51.960;8.372;2022-09-28T21:58:40;98862.00;;;11.20
20289;BMP180;10303;51.960;8.372;2022-09-28T22:01:23;98877.00;;;11.20
20289;BMP180;10303;51.960;8.372;2022-09-28T22:03:56;98865.00;;;11.20
20289;BMP180;10303;51.960;8.372;2022-09-28T22:06:26;98871.00;;;11.10
20289;BMP180;10303;51.960;8.372;2022-09-28T22:08:53;98878.00;;;11.20
20289;BMP180;10303;51.960;8.372;2022-09-28T22:11:26;98889.00;;;11.10
20289;BMP180;10303;51.960;8.372;2022-09-28T22:13:56;98873.00;;;11.10
20289;BMP180;10303;51.960;8.372;2022-09-28T22:16:29;98881.00;;;11.00
20289;BMP180;10303;51.960;8.372;2022-09-28T22:18:56;98866.00;;;11.10
20289;BMP180;10303;51.960;8.372;2022-09-28T22:21:30;98883.00;;;11.00
20289;BMP180;10303;51.960;8.372;2022-09-28T22:24:02;98881.00;;;11.00
20289;BMP180;10303;51.960;8.372;2022-09-28T22:26:32;98885.00;;;11.00
20289;BMP180;10303;51.960;8.372;2022-09-28T22:29:05;98883.00;;;11.00
20289;BMP180;10303;51.960;8.372;2022-09-28T22:31:38;98864.00;;;11.00
20289;BMP180;10303;51.960;8.372;2022-09-28T22:34:06;98874.00;;;11.10
20289;BMP180;10303;51.960;8.372;2022-09-28T22:36:33;98887.00;;;11.10
20289;BMP180;10303;51.960;8.372;2022-09-28T22:39:03;98875.00;;;11.10
20289;BMP180;10303;51.960;8.372;2022-09-28T22:41:32;98896.00;;;11.10
20289;BMP180;10303;51.960;8.372;2022-09-28T22:43:59;98900.00;;;11.10
20289;BMP180;10303;51.960;8.372;2022-09-28T22:46:28;98883.00;;;11.10
20289;BMP180;10303;51.960;8.372;2022-09-28T22:48:57;98879.00;;;11.20
20289;BMP180;10303;51.960;8.372;2022-09-28T22:51:26;98882.00;;;11.20
20289;BMP180;10303;51.960;8.372;2022-09-28T22:53:55;98878.00;;;11.20
20289;BMP180;10303;51.960;8.372;2022-09-28T22:56:23;98891.00;;;11.20
20289;BMP180;10303;51.960;8.372;2022-09-28T22:58:52;98901.00;;;11.20
20289;BMP180;10303;51.960;8.372;2022-09-28T23:01:24;98908.00;;;11.20
20289;BMP180;10303;51.960;8.372;2022-09-28T23:03:56;98891.00;;;11.30
20289;BMP180;10303;51.960;8.372;2022-09-28T23:06:25;98911.00;;;11.30
20289;BMP180;10303;51.960;8.372;2022-09-28T23:08:52;98907.00;;;11.30
20289;BMP180;10303;51.960;8.372;2022-09-28T23:11:19;98913.00;;;11.30
20289;BMP180;10303;51.960;8.372;2022-09-28T23:13:54;98886.00;;;11.20
20289;BMP180;10303;51.960;8.372;2022-09-28T23:16:23;98892.00;;;11.30
20289;BMP180;10303;51.960;8.372;2022-09-28T23:18:54;98892.00;;;11.30
20289;BMP180;10303;51.960;8.372;2022-09-28T23:21:25;98881.00;;;11.30
20289;BMP180;10303;51.960;8.372;2022-09-28T23:23:58;98900.00;;;11.30
20289;BMP180;10303;51.960;8.372;2022-09-28T23:26:47;98907.00;;;11.30
20289;BMP180;10303;51.960;8.372;2022-09-28T23:29:15;98885.00;;;11.40
20289;BMP180;10303;51.960;8.372;2022-09-28T23:31:49;98906.00;;;11.40
20289;BMP180;10303;51.960;8.372;2022-09-28T23:34:15;98901.00;;;11.40
20289;BMP180;10303;51.960;8.372;2022-09-28T23:36:42;98912.00;;;11.40
20289;BMP180;10303;51.960;8.372;2022-09-28T23:39:10;98904.00;;;11.40
20289;BMP180;10303;51.960;8.372;2022-09-28T23:41:36;98886.00;;;11.40
20289;BMP180;10303;51.960;8.372;2022-09-28T23:44:04;98884.00;;;11.40
20289;BMP180;10303;51.960;8.372;2022-09-28T23:46:30;98908.00;;;11.40
20289;BMP180;10303;51.960;8.372;2022-09-28T23:48:57;98905.00;;;11.40
20289;BMP180;10303;51.960;8.372;2022-09-28T23:51:23;98909.00;;;11.50
20289;BMP180;10303;51.960;8.372;2022-09-28T23:53:49;98907.00;;;11.50
20289;BMP180;10303;51.960;8.372;2022-09-28T23:56:15;98914.00;;;11.50
20289;BMP180;10303;51.960;8.372;2022-09-28T23:58:41;98905.00;;;11.50
